createdAt,value
2022-12-01T00:00:36.663Z,14.10
2022-12-01T00:05:38.321Z,12.93
2022-12-01T00:10:39.939Z,12.23
2022-12-01T00:15:41.555Z,11.90
2022-12-01T00:20:43.260Z,12.38
2022-12-01T00:25:44.919Z,12.52
2022-12-01T00:30:46.534Z,11.55
2022-12-01T00:35:48.181Z,10.63
2022-12-01T00:40:49.817Z,11.23
2022-12-01T00:45:52.138Z,10.90
2022-12-01T00:50:54.865Z,11.07
2022-12-01T00:55:56.957Z,10.55
2022-12-01T01:01:00.626Z,9.95
2022-12-01T01:06:07.188Z,10.82
2022-12-01T01:11:09.310Z,10.82
2022-12-01T01:16:19.202Z,11.30
2022-12-01T01:21:21.984Z,11.25
2022-12-01T01:26:24.882Z,12.07
2022-12-01T01:31:28.564Z,11.57
2022-12-01T01:36:30.318Z,11.95
2022-12-01T01:41:32.005Z,12.38
2022-12-01T01:46:34.922Z,11.75
2022-12-01T01:51:48.872Z,11.25
2022-12-01T01:56:52.077Z,11.57
2022-12-01T02:02:03.100Z,8.52
2022-12-01T02:07:07.107Z,12.20
2022-12-01T02:12:34.628Z,11.55
2022-12-01T02:17:42.024Z,12.25
2022-12-01T02:23:02.839Z,11.75
2022-12-01T02:28:26.282Z,13.48
2022-12-01T02:33:45.295Z,13.60
2022-12-01T02:39:06.327Z,13.18
2022-12-01T02:44:34.228Z,13.77
2022-12-01T02:49:41.984Z,12.15
2022-12-01T02:54:48.404Z,12.30
2022-12-01T02:59:54.282Z,13.70
2022-12-01T03:05:09.988Z,14.40
2022-12-01T03:10:24.303Z,14.00
2022-12-01T03:15:44.425Z,14.43
2022-12-01T03:21:08.291Z,15.02
2022-12-01T03:26:16.240Z,15.27
2022-12-01T03:31:27.597Z,16.75
2022-12-01T03:36:39.441Z,16.42
2022-12-01T03:41:52.827Z,16.65
2022-12-01T03:47:04.263Z,15.63
2022-12-01T03:52:39.626Z,17.55
2022-12-01T03:58:05.673Z,15.85
2022-12-01T04:03:07.556Z,16.98
2022-12-01T04:08:09.322Z,16.80
2022-12-01T04:13:22.630Z,18.40
2022-12-01T04:18:24.438Z,17.67
2022-12-01T04:24:01.385Z,18.48
2022-12-01T04:29:06.170Z,19.38
2022-12-01T04:34:09.515Z,20.10
2022-12-01T04:39:11.123Z,18.70
2022-12-01T04:44:13.179Z,20.05
2022-12-01T04:49:14.847Z,21.00
2022-12-01T04:54:17.250Z,19.17
2022-12-01T04:59:19.025Z,20.85
2022-12-01T05:04:20.693Z,21.55
2022-12-01T05:09:22.355Z,22.05
2022-12-01T05:14:24.053Z,22.77
2022-12-01T05:19:44.518Z,21.98
2022-12-01T05:24:46.104Z,20.90
2022-12-01T05:29:48.251Z,22.20
2022-12-01T05:34:50.052Z,21.42
2022-12-01T05:39:51.703Z,23.55
2022-12-01T05:44:53.618Z,22.10
2022-12-01T05:49:55.301Z,21.08
2022-12-01T05:54:56.973Z,21.33
2022-12-01T05:59:58.728Z,23.77
2022-12-01T06:05:00.421Z,21.60
2022-12-01T06:10:02.737Z,20.98
2022-12-01T06:15:06.135Z,23.52
2022-12-01T06:20:08.829Z,22.40
2022-12-01T06:25:10.817Z,21.95
2022-12-01T06:30:12.839Z,23.15
2022-12-01T06:35:14.604Z,24.70
2022-12-01T06:40:16.320Z,23.50
2022-12-01T06:45:18.058Z,23.40
2022-12-01T06:50:19.743Z,24.58
2022-12-01T06:55:21.754Z,24.13
2022-12-01T07:00:23.818Z,23.50
2022-12-01T07:05:26.065Z,23.60
2022-12-01T07:10:28.100Z,23.42
2022-12-01T07:15:29.858Z,25.60
2022-12-01T07:20:31.563Z,24.08
2022-12-01T07:25:33.319Z,22.95
2022-12-01T07:30:35.192Z,22.50
2022-12-01T07:35:36.990Z,23.73
2022-12-01T07:40:38.743Z,22.55
2022-12-01T07:45:40.438Z,23.58
2022-12-01T07:50:42.170Z,23.70
2022-12-01T07:55:49.289Z,23.77
2022-12-01T08:00:50.984Z,22.52
2022-12-01T08:06:00.487Z,22.98
2022-12-01T08:11:17.632Z,22.58
2022-12-01T08:16:23.701Z,23.10
2022-12-01T08:21:25.714Z,23.95
2022-12-01T08:26:27.682Z,24.73
2022-12-01T08:31:35.855Z,25.95
2022-12-01T08:36:37.732Z,25.75
2022-12-01T08:41:39.543Z,23.88
2022-12-01T08:46:41.249Z,22.48
2022-12-01T08:51:43.022Z,22.75
2022-12-01T08:56:45.668Z,23.13
2022-12-01T09:01:53.138Z,21.95
2022-12-01T09:06:56.295Z,22.10
2022-12-01T09:11:58.232Z,23.23
2022-12-01T09:17:00.020Z,22.92
2022-12-01T09:22:01.732Z,22.92
2022-12-01T09:27:04.461Z,23.15
2022-12-01T09:32:06.208Z,22.73
2022-12-01T09:37:08.051Z,24.58
2022-12-01T09:42:16.297Z,22.45
2022-12-01T09:47:37.599Z,21.38
2022-12-01T09:52:57.234Z,22.48
2022-12-01T09:58:00.979Z,21.00
2022-12-01T10:03:21.056Z,19.95
2022-12-01T10:08:27.234Z,20.52
2022-12-01T10:13:29.728Z,19.45
2022-12-01T10:18:54.807Z,19.63
2022-12-01T10:24:31.583Z,17.45
2022-12-01T10:29:50.079Z,17.25
2022-12-01T10:34:51.979Z,18.23
2022-12-01T10:39:55.562Z,16.52
2022-12-01T10:45:01.207Z,15.27
2022-12-01T10:50:04.052Z,15.32
2022-12-01T10:55:27.787Z,14.70
2022-12-01T11:00:58.586Z,13.70
2022-12-01T11:05:59.784Z,14.45
2022-12-01T11:16:06.182Z,15.07
2022-12-01T11:21:09.761Z,14.38
2022-12-01T11:26:16.061Z,14.13
2022-12-01T11:31:18.276Z,13.20
2022-12-01T11:36:26.050Z,13.02
2022-12-01T11:41:33.140Z,12.77
2022-12-01T11:46:46.314Z,11.73
2022-12-01T11:51:52.228Z,12.15
2022-12-01T11:57:25.281Z,11.45
2022-12-01T12:02:44.185Z,11.27
2022-12-01T12:08:05.700Z,11.65
2022-12-01T12:13:16.638Z,11.32
2022-12-01T12:18:24.505Z,11.65
2022-12-01T12:23:41.158Z,11.38
2022-12-01T12:29:19.895Z,11.10
2022-12-01T12:34:59.435Z,12.10
2022-12-01T12:40:36.086Z,11.43
2022-12-01T12:45:40.813Z,12.57
2022-12-01T12:51:11.631Z,12.32
2022-12-01T12:56:17.092Z,12.77
2022-12-01T13:01:33.690Z,13.52
2022-12-01T13:07:00.490Z,13.60
2022-12-01T13:12:09.764Z,14.93
2022-12-01T13:17:26.412Z,15.15
2022-12-01T13:22:33.044Z,15.68
2022-12-01T13:27:40.430Z,17.27
2022-12-01T13:32:43.067Z,17.08
2022-12-01T13:37:45.055Z,16.80
2022-12-01T13:43:14.551Z,18.02
2022-12-01T13:48:29.424Z,17.08
2022-12-01T13:53:38.498Z,17.75
2022-12-01T13:58:52.105Z,18.58
2022-12-01T14:04:02.626Z,20.67
2022-12-01T14:09:18.354Z,20.98
2022-12-01T14:14:26.180Z,21.58
2022-12-01T14:19:48.831Z,21.50
2022-12-01T14:24:53.154Z,21.90
2022-12-01T14:29:54.881Z,20.58
2022-12-01T14:35:00.622Z,21.67
2022-12-01T14:40:18.689Z,22.77
2022-12-01T14:45:39.555Z,21.92
2022-12-01T14:50:54.616Z,23.63
2022-12-01T14:56:00.641Z,25.63
2022-12-01T15:01:10.174Z,22.98
2022-12-01T15:06:24.364Z,24.63
2022-12-01T15:11:26.400Z,24.10
2022-12-01T15:16:32.270Z,24.02
2022-12-01T15:21:34.024Z,24.63
2022-12-01T15:26:51.013Z,23.10
2022-12-01T15:31:55.350Z,23.65
2022-12-01T15:36:58.363Z,25.25
2022-12-01T15:42:00.770Z,24.73
2022-12-01T15:47:30.702Z,22.50
2022-12-01T15:52:41.661Z,22.27
2022-12-01T15:57:46.566Z,23.83
2022-12-01T16:02:57.262Z,22.85
2022-12-01T16:08:14.080Z,22.00
2022-12-01T16:13:58.013Z,21.67
2022-12-01T16:19:02.168Z,23.38
2022-12-01T16:29:21.637Z,22.45
2022-12-01T16:34:44.828Z,24.58
2022-12-01T16:39:46.188Z,23.80
2022-12-01T16:44:49.394Z,24.67
2022-12-01T16:49:52.550Z,24.97
2022-12-01T16:54:54.239Z,24.08
2022-12-01T16:59:55.891Z,25.38
2022-12-01T17:04:57.641Z,25.42
2022-12-01T17:09:59.490Z,25.85
2022-12-01T17:15:01.171Z,25.75
2022-12-01T17:20:04.973Z,25.98
2022-12-01T17:25:09.460Z,24.65
2022-12-01T17:30:11.947Z,25.70
2022-12-01T17:35:13.677Z,26.52
2022-12-01T17:40:15.596Z,25.88
2022-12-01T17:45:17.809Z,25.52
2022-12-01T17:50:19.560Z,26.05
2022-12-01T17:55:21.239Z,27.02
2022-12-01T18:00:23.237Z,24.38
2022-12-01T18:05:25.046Z,27.00
2022-12-01T18:10:26.796Z,25.73
2022-12-01T18:15:33.257Z,25.73
2022-12-01T18:20:43.319Z,26.27
2022-12-01T18:25:44.984Z,26.60
2022-12-01T18:30:46.754Z,27.50
2022-12-01T18:35:48.463Z,25.23
2022-12-01T18:40:50.574Z,28.27
2022-12-01T18:45:52.279Z,26.55
2022-12-01T18:50:59.238Z,28.00
2022-12-01T18:56:03.513Z,26.67
2022-12-01T19:01:20.868Z,27.95
2022-12-01T19:06:23.578Z,26.40
2022-12-01T19:11:25.231Z,27.65
2022-12-01T19:16:27.627Z,26.20
2022-12-01T19:21:29.339Z,30.63
2022-12-01T19:26:31.008Z,26.67
2022-12-01T19:31:32.840Z,28.88
2022-12-01T19:36:34.600Z,27.50
2022-12-01T19:41:36.460Z,28.33
2022-12-01T19:46:38.198Z,28.58
2022-12-01T19:51:40.543Z,29.10
2022-12-01T19:56:42.648Z,27.90
2022-12-01T20:01:44.524Z,26.90
2022-12-01T20:06:46.378Z,27.95
2022-12-01T20:11:48.222Z,26.60
2022-12-01T20:16:49.964Z,28.10
2022-12-01T20:21:51.810Z,27.75
2022-12-01T20:26:56.593Z,28.95
2022-12-01T20:32:01.053Z,29.45
2022-12-01T20:37:04.425Z,30.75
2022-12-01T20:42:06.205Z,28.83
2022-12-01T20:47:07.915Z,30.63
2022-12-01T20:52:09.564Z,26.35
2022-12-01T20:57:11.268Z,28.95
2022-12-01T21:02:12.954Z,27.55
2022-12-01T21:07:14.699Z,27.00
2022-12-01T21:12:36.240Z,27.45
2022-12-01T21:17:43.760Z,27.38
2022-12-01T21:22:46.064Z,25.23
2022-12-01T21:27:47.758Z,24.05
2022-12-01T21:32:49.945Z,25.38
2022-12-01T21:37:58.055Z,25.48
2022-12-01T21:43:12.904Z,24.60
2022-12-01T21:48:22.971Z,22.70
2022-12-01T21:53:32.062Z,21.25
2022-12-01T21:58:37.261Z,20.30
2022-12-01T22:03:46.024Z,22.05
2022-12-01T22:08:51.642Z,20.50
2022-12-01T22:14:01.499Z,20.48
2022-12-01T22:19:32.068Z,20.35
2022-12-01T22:24:54.132Z,19.98
2022-12-01T22:30:11.100Z,19.92
2022-12-01T22:35:21.758Z,19.40
2022-12-01T22:40:48.005Z,19.27
2022-12-01T22:45:59.456Z,18.88
2022-12-01T22:51:20.969Z,19.23
2022-12-01T22:56:50.231Z,18.80
2022-12-01T23:01:57.360Z,18.30
2022-12-01T23:07:00.681Z,18.50
2022-12-01T23:12:11.657Z,13.60
2022-12-01T23:17:18.599Z,18.15
2022-12-01T23:22:20.347Z,18.92
2022-12-01T23:27:22.007Z,18.00
2022-12-01T23:32:23.640Z,19.15
2022-12-01T23:37:39.894Z,19.48
2022-12-01T23:42:42.092Z,18.15
2022-12-01T23:47:43.752Z,18.20
2022-12-01T23:52:46.049Z,18.35
2022-12-01T23:57:48.282Z,17.42
